sensor_id;sensor_type;location;lat;lon;timestamp;P1;durP1;ratioP1;P2;durP2;ratioP2
19127;SDS011;9696;53.686;10.094;2023-01-23T00:00:17;1.77;;;1.17;;
19127;SDS011;9696;53.686;10.094;2023-01-23T00:02:47;3.80;;;1.20;;
19127;SDS011;9696;53.686;10.094;2023-01-23T00:05:16;4.37;;;1.37;;
19127;SDS011;9696;53.686;10.094;2023-01-23T00:07:45;4.53;;;1.47;;
19127;SDS011;9696;53.686;10.094;2023-01-23T00:10:15;1.57;;;1.23;;
19127;SDS011;9696;53.686;10.094;2023-01-23T00:12:46;3.67;;;1.63;;
19127;SDS011;9696;53.686;10.094;2023-01-23T00:15:15;4.80;;;1.40;;
19127;SDS011;9696;53.686;10.094;2023-01-23T00:17:44;2.00;;;1.37;;
19127;SDS011;9696;53.686;10.094;2023-01-23T00:20:14;7.03;;;1.37;;
19127;SDS011;9696;53.686;10.094;2023-01-23T00:22:43;2.30;;;1.00;;
19127;SDS011;9696;53.686;10.094;2023-01-23T00:25:12;1.87;;;1.10;;
19127;SDS011;9696;53.686;10.094;2023-01-23T00:27:42;1.97;;;1.17;;
19127;SDS011;9696;53.686;10.094;2023-01-23T00:30:12;2.53;;;1.50;;
19127;SDS011;9696;53.686;10.094;2023-01-23T00:32:42;2.10;;;1.27;;
19127;SDS011;9696;53.686;10.094;2023-01-23T00:35:11;3.33;;;1.20;;
19127;SDS011;9696;53.686;10.094;2023-01-23T00:37:40;5.93;;;1.00;;
19127;SDS011;9696;53.686;10.094;2023-01-23T00:40:10;1.37;;;0.83;;
19127;SDS011;9696;53.686;10.094;2023-01-23T00:42:40;1.30;;;1.00;;
19127;SDS011;9696;53.686;10.094;2023-01-23T00:45:09;2.27;;;1.03;;
19127;SDS011;9696;53.686;10.094;2023-01-23T00:47:40;1.70;;;1.00;;
19127;SDS011;9696;53.686;10.094;2023-01-23T00:50:10;2.20;;;1.00;;
19127;SDS011;9696;53.686;10.094;2023-01-23T00:52:40;1.20;;;0.90;;
19127;SDS011;9696;53.686;10.094;2023-01-23T00:55:09;2.13;;;1.20;;
19127;SDS011;9696;53.686;10.094;2023-01-23T00:57:38;1.07;;;0.90;;
19127;SDS011;9696;53.686;10.094;2023-01-23T01:00:08;2.60;;;0.77;;
19127;SDS011;9696;53.686;10.094;2023-01-23T01:02:38;1.67;;;1.00;;
19127;SDS011;9696;53.686;10.094;2023-01-23T01:05:08;1.17;;;0.97;;
19127;SDS011;9696;53.686;10.094;2023-01-23T01:07:37;1.40;;;0.90;;
19127;SDS011;9696;53.686;10.094;2023-01-23T01:10:07;1.00;;;0.70;;
19127;SDS011;9696;53.686;10.094;2023-01-23T01:12:37;2.83;;;1.10;;
19127;SDS011;9696;53.686;10.094;2023-01-23T01:15:07;1.23;;;0.97;;
19127;SDS011;9696;53.686;10.094;2023-01-23T01:17:37;2.43;;;0.97;;
19127;SDS011;9696;53.686;10.094;2023-01-23T01:20:07;3.50;;;1.13;;
19127;SDS011;9696;53.686;10.094;2023-01-23T01:22:38;2.57;;;1.00;;
19127;SDS011;9696;53.686;10.094;2023-01-23T01:25:07;1.17;;;1.00;;
19127;SDS011;9696;53.686;10.094;2023-01-23T01:27:37;3.87;;;1.13;;
19127;SDS011;9696;53.686;10.094;2023-01-23T01:30:06;2.40;;;1.33;;
19127;SDS011;9696;53.686;10.094;2023-01-23T01:32:36;1.80;;;1.50;;
19127;SDS011;9696;53.686;10.094;2023-01-23T01:35:07;7.33;;;1.40;;
19127;SDS011;9696;53.686;10.094;2023-01-23T01:37:39;4.60;;;1.50;;
19127;SDS011;9696;53.686;10.094;2023-01-23T01:40:11;3.77;;;1.50;;
19127;SDS011;9696;53.686;10.094;2023-01-23T01:42:42;5.67;;;1.90;;
19127;SDS011;9696;53.686;10.094;2023-01-23T01:48:22;3.30;;;1.80;;
19127;SDS011;9696;53.686;10.094;2023-01-23T01:50:55;1.63;;;1.50;;
19127;SDS011;9696;53.686;10.094;2023-01-23T01:53:26;3.30;;;1.90;;
19127;SDS011;9696;53.686;10.094;2023-01-23T01:55:58;3.20;;;1.90;;
19127;SDS011;9696;53.686;10.094;2023-01-23T01:58:28;2.83;;;1.60;;
19127;SDS011;9696;53.686;10.094;2023-01-23T02:00:57;4.13;;;2.20;;
19127;SDS011;9696;53.686;10.094;2023-01-23T02:03:27;4.23;;;1.93;;
19127;SDS011;9696;53.686;10.094;2023-01-23T02:05:57;4.30;;;2.27;;
19127;SDS011;9696;53.686;10.094;2023-01-23T02:08:29;3.90;;;2.37;;
19127;SDS011;9696;53.686;10.094;2023-01-23T02:11:03;2.57;;;1.63;;
19127;SDS011;9696;53.686;10.094;2023-01-23T02:13:33;2.83;;;1.83;;
19127;SDS011;9696;53.686;10.094;2023-01-23T02:16:05;2.77;;;2.07;;
19127;SDS011;9696;53.686;10.094;2023-01-23T02:18:37;2.53;;;1.93;;
19127;SDS011;9696;53.686;10.094;2023-01-23T02:21:12;4.83;;;2.20;;
19127;SDS011;9696;53.686;10.094;2023-01-23T02:23:47;4.17;;;2.20;;
19127;SDS011;9696;53.686;10.094;2023-01-23T02:26:27;3.20;;;2.13;;
19127;SDS011;9696;53.686;10.094;2023-01-23T02:28:59;2.13;;;1.63;;
19127;SDS011;9696;53.686;10.094;2023-01-23T02:31:32;2.17;;;1.90;;
19127;SDS011;9696;53.686;10.094;2023-01-23T02:34:04;2.60;;;2.20;;
19127;SDS011;9696;53.686;10.094;2023-01-23T02:36:33;3.57;;;2.07;;
19127;SDS011;9696;53.686;10.094;2023-01-23T02:39:06;3.60;;;2.23;;
19127;SDS011;9696;53.686;10.094;2023-01-23T02:41:39;2.47;;;2.07;;
19127;SDS011;9696;53.686;10.094;2023-01-23T02:44:11;3.73;;;2.13;;
19127;SDS011;9696;53.686;10.094;2023-01-23T02:46:47;3.00;;;2.07;;
19127;SDS011;9696;53.686;10.094;2023-01-23T02:49:17;2.67;;;2.07;;
19127;SDS011;9696;53.686;10.094;2023-01-23T02:51:48;3.50;;;2.20;;
19127;SDS011;9696;53.686;10.094;2023-01-23T02:54:17;4.47;;;2.30;;
19127;SDS011;9696;53.686;10.094;2023-01-23T02:56:48;3.43;;;2.00;;
19127;SDS011;9696;53.686;10.094;2023-01-23T02:59:20;7.43;;;2.40;;
19127;SDS011;9696;53.686;10.094;2023-01-23T03:02:07;5.10;;;2.47;;
19127;SDS011;9696;53.686;10.094;2023-01-23T03:04:36;3.57;;;2.20;;
19127;SDS011;9696;53.686;10.094;2023-01-23T03:07:05;3.17;;;2.07;;
19127;SDS011;9696;53.686;10.094;2023-01-23T03:09:35;2.83;;;2.07;;
19127;SDS011;9696;53.686;10.094;2023-01-23T03:12:05;5.00;;;2.20;;
19127;SDS011;9696;53.686;10.094;2023-01-23T03:14:36;5.10;;;2.30;;
19127;SDS011;9696;53.686;10.094;2023-01-23T03:17:05;2.53;;;1.87;;
19127;SDS011;9696;53.686;10.094;2023-01-23T03:19:36;10.20;;;2.77;;
19127;SDS011;9696;53.686;10.094;2023-01-23T03:22:06;3.43;;;1.90;;
19127;SDS011;9696;53.686;10.094;2023-01-23T03:24:35;4.10;;;2.37;;
19127;SDS011;9696;53.686;10.094;2023-01-23T03:27:06;1.83;;;1.57;;
19127;SDS011;9696;53.686;10.094;2023-01-23T03:29:43;4.50;;;1.93;;
19127;SDS011;9696;53.686;10.094;2023-01-23T03:32:29;3.03;;;1.90;;
19127;SDS011;9696;53.686;10.094;2023-01-23T03:34:58;4.47;;;1.80;;
19127;SDS011;9696;53.686;10.094;2023-01-23T03:37:27;2.60;;;1.80;;
19127;SDS011;9696;53.686;10.094;2023-01-23T03:39:57;3.13;;;1.93;;
19127;SDS011;9696;53.686;10.094;2023-01-23T03:42:45;2.17;;;1.70;;
19127;SDS011;9696;53.686;10.094;2023-01-23T03:45:22;3.60;;;1.70;;
19127;SDS011;9696;53.686;10.094;2023-01-23T03:47:51;2.70;;;1.63;;
19127;SDS011;9696;53.686;10.094;2023-01-23T03:50:20;2.73;;;1.67;;
19127;SDS011;9696;53.686;10.094;2023-01-23T03:52:49;1.60;;;1.30;;
19127;SDS011;9696;53.686;10.094;2023-01-23T03:55:19;1.80;;;1.43;;
19127;SDS011;9696;53.686;10.094;2023-01-23T03:57:50;2.27;;;1.60;;
19127;SDS011;9696;53.686;10.094;2023-01-23T04:00:28;1.70;;;1.30;;
19127;SDS011;9696;53.686;10.094;2023-01-23T04:03:02;2.00;;;1.43;;
19127;SDS011;9696;53.686;10.094;2023-01-23T04:05:32;3.50;;;1.90;;
19127;SDS011;9696;53.686;10.094;2023-01-23T04:08:01;4.47;;;2.07;;
19127;SDS011;9696;53.686;10.094;2023-01-23T04:10:31;2.33;;;1.60;;
19127;SDS011;9696;53.686;10.094;2023-01-23T04:13:05;2.60;;;2.03;;
19127;SDS011;9696;53.686;10.094;2023-01-23T04:15:35;4.03;;;2.27;;
19127;SDS011;9696;53.686;10.094;2023-01-23T04:18:05;6.13;;;2.20;;
19127;SDS011;9696;53.686;10.094;2023-01-23T04:20:37;2.73;;;2.07;;
19127;SDS011;9696;53.686;10.094;2023-01-23T04:23:06;3.93;;;2.50;;
19127;SDS011;9696;53.686;10.094;2023-01-23T04:25:36;3.57;;;2.03;;
19127;SDS011;9696;53.686;10.094;2023-01-23T04:28:12;4.87;;;2.97;;
19127;SDS011;9696;53.686;10.094;2023-01-23T04:30:42;3.70;;;2.43;;
19127;SDS011;9696;53.686;10.094;2023-01-23T04:33:19;4.70;;;2.70;;
19127;SDS011;9696;53.686;10.094;2023-01-23T04:35:49;10.20;;;3.23;;
19127;SDS011;9696;53.686;10.094;2023-01-23T04:38:20;3.90;;;2.50;;
19127;SDS011;9696;53.686;10.094;2023-01-23T04:40:50;3.70;;;2.37;;
19127;SDS011;9696;53.686;10.094;2023-01-23T04:43:21;3.10;;;2.27;;
19127;SDS011;9696;53.686;10.094;2023-01-23T04:45:52;4.27;;;2.57;;
19127;SDS011;9696;53.686;10.094;2023-01-23T04:48:44;7.17;;;2.63;;
19127;SDS011;9696;53.686;10.094;2023-01-23T04:51:15;4.33;;;2.70;;
19127;SDS011;9696;53.686;10.094;2023-01-23T04:53:44;3.73;;;2.77;;
19127;SDS011;9696;53.686;10.094;2023-01-23T04:56:13;5.40;;;2.87;;
19127;SDS011;9696;53.686;10.094;2023-01-23T04:58:44;4.83;;;2.83;;
19127;SDS011;9696;53.686;10.094;2023-01-23T05:01:18;3.93;;;3.00;;
19127;SDS011;9696;53.686;10.094;2023-01-23T05:03:51;4.80;;;3.10;;
19127;SDS011;9696;53.686;10.094;2023-01-23T05:06:21;5.47;;;3.17;;
19127;SDS011;9696;53.686;10.094;2023-01-23T05:08:53;4.23;;;2.77;;
19127;SDS011;9696;53.686;10.094;2023-01-23T05:11:32;7.03;;;3.20;;
19127;SDS011;9696;53.686;10.094;2023-01-23T05:14:02;4.83;;;3.20;;
19127;SDS011;9696;53.686;10.094;2023-01-23T05:16:33;5.00;;;3.00;;
19127;SDS011;9696;53.686;10.094;2023-01-23T05:19:17;6.90;;;3.57;;
19127;SDS011;9696;53.686;10.094;2023-01-23T05:21:46;6.47;;;3.27;;
19127;SDS011;9696;53.686;10.094;2023-01-23T05:24:19;5.17;;;3.40;;
19127;SDS011;9696;53.686;10.094;2023-01-23T05:26:48;6.90;;;3.20;;
19127;SDS011;9696;53.686;10.094;2023-01-23T05:29:20;7.77;;;2.73;;
19127;SDS011;9696;53.686;10.094;2023-01-23T05:31:59;6.67;;;3.43;;
19127;SDS011;9696;53.686;10.094;2023-01-23T05:34:51;5.17;;;3.57;;
19127;SDS011;9696;53.686;10.094;2023-01-23T05:37:23;4.93;;;2.97;;
19127;SDS011;9696;53.686;10.094;2023-01-23T05:39:56;7.60;;;2.97;;
19127;SDS011;9696;53.686;10.094;2023-01-23T05:42:38;9.17;;;3.40;;
19127;SDS011;9696;53.686;10.094;2023-01-23T05:45:34;5.80;;;3.57;;
19127;SDS011;9696;53.686;10.094;2023-01-23T05:48:09;5.67;;;3.37;;
19127;SDS011;9696;53.686;10.094;2023-01-23T05:50:38;5.00;;;2.87;;
19127;SDS011;9696;53.686;10.094;2023-01-23T05:53:08;4.00;;;3.13;;
19127;SDS011;9696;53.686;10.094;2023-01-23T05:55:37;4.23;;;3.10;;
19127;SDS011;9696;53.686;10.094;2023-01-23T05:58:08;5.27;;;3.10;;
19127;SDS011;9696;53.686;10.094;2023-01-23T06:00:55;4.60;;;3.30;;
19127;SDS011;9696;53.686;10.094;2023-01-23T06:03:43;6.60;;;3.63;;
19127;SDS011;9696;53.686;10.094;2023-01-23T06:06:32;9.63;;;3.83;;
19127;SDS011;9696;53.686;10.094;2023-01-23T06:09:02;6.77;;;3.37;;
19127;SDS011;9696;53.686;10.094;2023-01-23T06:11:31;10.10;;;3.60;;
19127;SDS011;9696;53.686;10.094;2023-01-23T06:14:01;6.87;;;3.63;;
19127;SDS011;9696;53.686;10.094;2023-01-23T06:16:32;4.77;;;3.33;;
19127;SDS011;9696;53.686;10.094;2023-01-23T06:19:03;12.10;;;3.97;;
19127;SDS011;9696;53.686;10.094;2023-01-23T06:21:35;5.93;;;3.70;;
19127;SDS011;9696;53.686;10.094;2023-01-23T06:24:05;6.50;;;3.50;;
19127;SDS011;9696;53.686;10.094;2023-01-23T06:26:35;6.37;;;3.57;;
19127;SDS011;9696;53.686;10.094;2023-01-23T06:29:04;7.20;;;3.50;;
19127;SDS011;9696;53.686;10.094;2023-01-23T06:31:35;5.07;;;3.30;;
19127;SDS011;9696;53.686;10.094;2023-01-23T06:34:05;5.10;;;3.37;;
19127;SDS011;9696;53.686;10.094;2023-01-23T06:36:41;6.93;;;4.07;;
19127;SDS011;9696;53.686;10.094;2023-01-23T06:39:12;4.53;;;2.83;;
19127;SDS011;9696;53.686;10.094;2023-01-23T06:41:42;10.17;;;3.77;;
19127;SDS011;9696;53.686;10.094;2023-01-23T06:44:17;6.17;;;3.67;;
19127;SDS011;9696;53.686;10.094;2023-01-23T06:46:48;7.90;;;3.77;;
19127;SDS011;9696;53.686;10.094;2023-01-23T06:49:22;9.40;;;3.97;;
19127;SDS011;9696;53.686;10.094;2023-01-23T06:51:51;7.33;;;4.07;;
19127;SDS011;9696;53.686;10.094;2023-01-23T06:54:23;9.23;;;3.73;;
19127;SDS011;9696;53.686;10.094;2023-01-23T06:56:58;9.93;;;3.83;;
19127;SDS011;9696;53.686;10.094;2023-01-23T06:59:28;9.93;;;4.00;;
19127;SDS011;9696;53.686;10.094;2023-01-23T07:02:00;5.10;;;3.83;;
19127;SDS011;9696;53.686;10.094;2023-01-23T07:04:37;6.77;;;3.93;;
19127;SDS011;9696;53.686;10.094;2023-01-23T07:07:06;10.13;;;4.23;;
19127;SDS011;9696;53.686;10.094;2023-01-23T07:09:35;5.57;;;3.43;;
19127;SDS011;9696;53.686;10.094;2023-01-23T07:12:09;8.20;;;3.90;;
19127;SDS011;9696;53.686;10.094;2023-01-23T07:14:38;4.90;;;3.33;;
19127;SDS011;9696;53.686;10.094;2023-01-23T07:17:11;6.83;;;4.03;;
19127;SDS011;9696;53.686;10.094;2023-01-23T07:19:40;7.63;;;3.77;;
19127;SDS011;9696;53.686;10.094;2023-01-23T07:22:15;7.20;;;4.40;;
19127;SDS011;9696;53.686;10.094;2023-01-23T07:24:45;6.40;;;4.00;;
19127;SDS011;9696;53.686;10.094;2023-01-23T07:27:14;7.67;;;4.40;;
19127;SDS011;9696;53.686;10.094;2023-01-23T07:29:43;8.33;;;4.27;;
19127;SDS011;9696;53.686;10.094;2023-01-23T07:32:14;5.83;;;4.10;;
19127;SDS011;9696;53.686;10.094;2023-01-23T07:34:43;10.63;;;4.27;;
19127;SDS011;9696;53.686;10.094;2023-01-23T07:37:12;6.47;;;3.63;;
19127;SDS011;9696;53.686;10.094;2023-01-23T07:39:42;6.37;;;4.10;;
19127;SDS011;9696;53.686;10.094;2023-01-23T07:42:11;6.57;;;3.93;;
19127;SDS011;9696;53.686;10.094;2023-01-23T07:44:41;6.37;;;3.90;;
19127;SDS011;9696;53.686;10.094;2023-01-23T07:47:10;7.47;;;4.47;;
19127;SDS011;9696;53.686;10.094;2023-01-23T07:49:40;12.73;;;4.93;;
19127;SDS011;9696;53.686;10.094;2023-01-23T07:52:09;7.60;;;4.07;;
19127;SDS011;9696;53.686;10.094;2023-01-23T07:54:38;10.00;;;4.20;;
19127;SDS011;9696;53.686;10.094;2023-01-23T07:57:07;7.60;;;4.30;;
19127;SDS011;9696;53.686;10.094;2023-01-23T07:59:37;8.57;;;4.47;;
19127;SDS011;9696;53.686;10.094;2023-01-23T08:02:07;8.87;;;4.83;;
19127;SDS011;9696;53.686;10.094;2023-01-23T08:04:36;7.57;;;4.67;;
19127;SDS011;9696;53.686;10.094;2023-01-23T08:07:07;10.50;;;4.97;;
19127;SDS011;9696;53.686;10.094;2023-01-23T08:09:36;10.53;;;5.00;;
19127;SDS011;9696;53.686;10.094;2023-01-23T08:12:06;7.13;;;4.33;;
19127;SDS011;9696;53.686;10.094;2023-01-23T08:14:35;7.37;;;4.10;;
19127;SDS011;9696;53.686;10.094;2023-01-23T08:17:05;7.43;;;4.53;;
19127;SDS011;9696;53.686;10.094;2023-01-23T08:19:34;8.63;;;5.00;;
19127;SDS011;9696;53.686;10.094;2023-01-23T08:22:03;7.87;;;4.47;;
19127;SDS011;9696;53.686;10.094;2023-01-23T08:24:33;6.20;;;4.03;;
19127;SDS011;9696;53.686;10.094;2023-01-23T08:27:02;7.00;;;4.37;;
19127;SDS011;9696;53.686;10.094;2023-01-23T08:29:32;13.00;;;4.30;;
19127;SDS011;9696;53.686;10.094;2023-01-23T08:32:01;7.77;;;4.53;;
19127;SDS011;9696;53.686;10.094;2023-01-23T08:34:30;8.17;;;4.63;;
19127;SDS011;9696;53.686;10.094;2023-01-23T08:36:59;8.60;;;4.40;;
19127;SDS011;9696;53.686;10.094;2023-01-23T08:39:28;7.27;;;4.80;;
19127;SDS011;9696;53.686;10.094;2023-01-23T08:41:59;6.27;;;4.00;;
19127;SDS011;9696;53.686;10.094;2023-01-23T08:44:28;7.50;;;3.97;;
19127;SDS011;9696;53.686;10.094;2023-01-23T08:47:00;7.67;;;4.37;;
19127;SDS011;9696;53.686;10.094;2023-01-23T08:49:29;14.30;;;4.53;;
19127;SDS011;9696;53.686;10.094;2023-01-23T08:51:58;8.60;;;4.37;;
19127;SDS011;9696;53.686;10.094;2023-01-23T08:54:27;11.03;;;5.90;;
19127;SDS011;9696;53.686;10.094;2023-01-23T08:56:56;10.07;;;4.87;;
19127;SDS011;9696;53.686;10.094;2023-01-23T08:59:27;10.23;;;4.67;;
19127;SDS011;9696;53.686;10.094;2023-01-23T09:01:56;9.53;;;4.93;;
19127;SDS011;9696;53.686;10.094;2023-01-23T09:04:25;12.90;;;5.23;;
19127;SDS011;9696;53.686;10.094;2023-01-23T09:06:54;8.23;;;4.20;;
19127;SDS011;9696;53.686;10.094;2023-01-23T09:09:24;9.83;;;4.70;;
19127;SDS011;9696;53.686;10.094;2023-01-23T09:11:53;10.53;;;5.20;;
19127;SDS011;9696;53.686;10.094;2023-01-23T09:14:23;12.53;;;5.20;;
19127;SDS011;9696;53.686;10.094;2023-01-23T09:16:52;7.57;;;4.80;;
19127;SDS011;9696;53.686;10.094;2023-01-23T09:19:21;9.43;;;4.67;;
19127;SDS011;9696;53.686;10.094;2023-01-23T09:21:51;8.73;;;5.00;;
19127;SDS011;9696;53.686;10.094;2023-01-23T09:24:22;7.67;;;4.40;;
19127;SDS011;9696;53.686;10.094;2023-01-23T09:26:51;7.57;;;4.53;;
19127;SDS011;9696;53.686;10.094;2023-01-23T09:29:20;8.97;;;4.43;;
19127;SDS011;9696;53.686;10.094;2023-01-23T09:31:51;7.33;;;4.23;;
19127;SDS011;9696;53.686;10.094;2023-01-23T09:34:20;6.67;;;3.73;;
19127;SDS011;9696;53.686;10.094;2023-01-23T09:36:49;6.73;;;4.17;;
19127;SDS011;9696;53.686;10.094;2023-01-23T09:39:19;9.57;;;4.67;;
19127;SDS011;9696;53.686;10.094;2023-01-23T09:41:48;8.73;;;4.43;;
19127;SDS011;9696;53.686;10.094;2023-01-23T09:44:17;10.83;;;4.67;;
19127;SDS011;9696;53.686;10.094;2023-01-23T09:46:52;6.77;;;4.23;;
19127;SDS011;9696;53.686;10.094;2023-01-23T09:49:24;11.13;;;4.40;;
19127;SDS011;9696;53.686;10.094;2023-01-23T09:52:02;7.90;;;4.60;;
19127;SDS011;9696;53.686;10.094;2023-01-23T09:54:39;11.67;;;4.27;;
19127;SDS011;9696;53.686;10.094;2023-01-23T09:57:12;8.33;;;4.63;;
19127;SDS011;9696;53.686;10.094;2023-01-23T09:59:44;8.53;;;4.77;;
19127;SDS011;9696;53.686;10.094;2023-01-23T10:02:28;7.37;;;4.70;;
19127;SDS011;9696;53.686;10.094;2023-01-23T10:04:57;10.93;;;4.93;;
19127;SDS011;9696;53.686;10.094;2023-01-23T10:07:41;9.10;;;5.00;;
19127;SDS011;9696;53.686;10.094;2023-01-23T10:13:23;13.10;;;4.70;;
19127;SDS011;9696;53.686;10.094;2023-01-23T10:16:07;9.07;;;4.70;;
19127;SDS011;9696;53.686;10.094;2023-01-23T10:18:52;8.00;;;4.37;;
19127;SDS011;9696;53.686;10.094;2023-01-23T10:21:31;8.30;;;4.50;;
19127;SDS011;9696;53.686;10.094;2023-01-23T10:24:20;8.03;;;4.33;;
19127;SDS011;9696;53.686;10.094;2023-01-23T10:27:12;7.10;;;4.27;;
19127;SDS011;9696;53.686;10.094;2023-01-23T10:29:46;9.30;;;4.67;;
19127;SDS011;9696;53.686;10.094;2023-01-23T10:32:23;9.17;;;4.83;;
19127;SDS011;9696;53.686;10.094;2023-01-23T10:34:56;9.73;;;4.77;;
19127;SDS011;9696;53.686;10.094;2023-01-23T10:37:35;11.43;;;4.97;;
19127;SDS011;9696;53.686;10.094;2023-01-23T10:40:11;10.13;;;5.10;;
19127;SDS011;9696;53.686;10.094;2023-01-23T10:42:41;9.27;;;4.70;;
19127;SDS011;9696;53.686;10.094;2023-01-23T10:45:12;6.60;;;4.20;;
19127;SDS011;9696;53.686;10.094;2023-01-23T10:47:46;9.47;;;4.80;;
19127;SDS011;9696;53.686;10.094;2023-01-23T10:50:32;13.27;;;4.77;;
19127;SDS011;9696;53.686;10.094;2023-01-23T10:53:05;9.53;;;4.80;;
19127;SDS011;9696;53.686;10.094;2023-01-23T10:55:43;14.03;;;4.70;;
19127;SDS011;9696;53.686;10.094;2023-01-23T10:58:20;10.90;;;5.03;;
19127;SDS011;9696;53.686;10.094;2023-01-23T11:00:56;9.33;;;5.20;;
19127;SDS011;9696;53.686;10.094;2023-01-23T11:03:27;10.57;;;5.07;;
19127;SDS011;9696;53.686;10.094;2023-01-23T11:06:01;12.93;;;5.77;;
19127;SDS011;9696;53.686;10.094;2023-01-23T11:08:32;8.33;;;4.70;;
19127;SDS011;9696;53.686;10.094;2023-01-23T11:11:19;10.07;;;5.27;;
19127;SDS011;9696;53.686;10.094;2023-01-23T11:13:50;10.90;;;5.27;;
19127;SDS011;9696;53.686;10.094;2023-01-23T11:16:32;11.87;;;5.33;;
19127;SDS011;9696;53.686;10.094;2023-01-23T11:19:03;11.23;;;5.47;;
19127;SDS011;9696;53.686;10.094;2023-01-23T11:21:49;8.57;;;4.90;;
19127;SDS011;9696;53.686;10.094;2023-01-23T11:24:20;10.83;;;5.13;;
19127;SDS011;9696;53.686;10.094;2023-01-23T11:27:14;11.90;;;5.97;;
19127;SDS011;9696;53.686;10.094;2023-01-23T11:32:58;10.83;;;5.70;;
19127;SDS011;9696;53.686;10.094;2023-01-23T11:35:41;11.67;;;5.70;;
19127;SDS011;9696;53.686;10.094;2023-01-23T11:38:29;10.13;;;4.70;;
19127;SDS011;9696;53.686;10.094;2023-01-23T11:41:05;9.10;;;4.70;;
19127;SDS011;9696;53.686;10.094;2023-01-23T11:43:38;10.80;;;5.10;;
19127;SDS011;9696;53.686;10.094;2023-01-23T11:46:14;8.40;;;5.07;;
19127;SDS011;9696;53.686;10.094;2023-01-23T11:49:04;8.40;;;5.27;;
19127;SDS011;9696;53.686;10.094;2023-01-23T11:51:45;11.73;;;5.33;;
19127;SDS011;9696;53.686;10.094;2023-01-23T11:54:31;10.83;;;5.30;;
19127;SDS011;9696;53.686;10.094;2023-01-23T11:57:15;7.97;;;4.87;;
19127;SDS011;9696;53.686;10.094;2023-01-23T11:59:55;12.23;;;5.27;;
19127;SDS011;9696;53.686;10.094;2023-01-23T12:02:54;9.73;;;5.30;;
19127;SDS011;9696;53.686;10.094;2023-01-23T12:05:50;8.33;;;5.13;;
19127;SDS011;9696;53.686;10.094;2023-01-23T12:08:53;9.77;;;5.47;;
19127;SDS011;9696;53.686;10.094;2023-01-23T12:11:32;11.20;;;5.57;;
19127;SDS011;9696;53.686;10.094;2023-01-23T12:14:10;8.73;;;5.23;;
19127;SDS011;9696;53.686;10.094;2023-01-23T12:16:49;11.17;;;4.90;;
19127;SDS011;9696;53.686;10.094;2023-01-23T12:19:45;11.47;;;5.57;;
19127;SDS011;9696;53.686;10.094;2023-01-23T12:22:29;13.33;;;4.97;;
19127;SDS011;9696;53.686;10.094;2023-01-23T12:25:13;11.90;;;5.23;;
19127;SDS011;9696;53.686;10.094;2023-01-23T12:27:55;8.33;;;5.17;;
19127;SDS011;9696;53.686;10.094;2023-01-23T12:30:45;11.80;;;5.60;;
19127;SDS011;9696;53.686;10.094;2023-01-23T12:33:25;8.77;;;5.10;;
19127;SDS011;9696;53.686;10.094;2023-01-23T12:39:37;8.50;;;4.60;;
19127;SDS011;9696;53.686;10.094;2023-01-23T12:42:20;15.03;;;5.80;;
19127;SDS011;9696;53.686;10.094;2023-01-23T12:44:56;9.93;;;5.33;;
19127;SDS011;9696;53.686;10.094;2023-01-23T12:47:29;9.83;;;5.47;;
19127;SDS011;9696;53.686;10.094;2023-01-23T12:50:02;7.40;;;4.50;;
19127;SDS011;9696;53.686;10.094;2023-01-23T12:52:41;10.27;;;5.23;;
19127;SDS011;9696;53.686;10.094;2023-01-23T12:55:17;10.40;;;5.50;;
19127;SDS011;9696;53.686;10.094;2023-01-23T12:57:51;9.20;;;5.13;;
19127;SDS011;9696;53.686;10.094;2023-01-23T13:00:43;10.00;;;5.57;;
19127;SDS011;9696;53.686;10.094;2023-01-23T13:03:25;10.33;;;4.83;;
19127;SDS011;9696;53.686;10.094;2023-01-23T13:06:20;9.10;;;5.20;;
19127;SDS011;9696;53.686;10.094;2023-01-23T13:09:02;9.17;;;4.87;;
19127;SDS011;9696;53.686;10.094;2023-01-23T13:14:48;12.63;;;5.27;;
19127;SDS011;9696;53.686;10.094;2023-01-23T13:17:40;11.93;;;5.90;;
19127;SDS011;9696;53.686;10.094;2023-01-23T13:20:21;9.63;;;4.87;;
19127;SDS011;9696;53.686;10.094;2023-01-23T13:23:19;10.67;;;5.70;;
19127;SDS011;9696;53.686;10.094;2023-01-23T13:28:55;11.43;;;5.37;;
19127;SDS011;9696;53.686;10.094;2023-01-23T13:31:35;10.57;;;5.60;;
19127;SDS011;9696;53.686;10.094;2023-01-23T13:40:21;12.40;;;5.97;;
19127;SDS011;9696;53.686;10.094;2023-01-23T13:42:51;10.57;;;5.27;;
19127;SDS011;9696;53.686;10.094;2023-01-23T13:45:21;13.03;;;6.27;;
19127;SDS011;9696;53.686;10.094;2023-01-23T13:51:48;14.73;;;6.23;;
19127;SDS011;9696;53.686;10.094;2023-01-23T13:54:31;13.27;;;6.27;;
19127;SDS011;9696;53.686;10.094;2023-01-23T13:57:31;9.73;;;5.37;;
19127;SDS011;9696;53.686;10.094;2023-01-23T14:00:17;12.67;;;6.20;;
19127;SDS011;9696;53.686;10.094;2023-01-23T14:03:23;11.83;;;6.33;;
19127;SDS011;9696;53.686;10.094;2023-01-23T14:06:30;10.03;;;5.57;;
19127;SDS011;9696;53.686;10.094;2023-01-23T14:09:20;11.33;;;6.20;;
19127;SDS011;9696;53.686;10.094;2023-01-23T14:12:04;11.83;;;6.10;;
19127;SDS011;9696;53.686;10.094;2023-01-23T14:14:48;10.87;;;5.97;;
19127;SDS011;9696;53.686;10.094;2023-01-23T14:17:48;12.60;;;6.27;;
19127;SDS011;9696;53.686;10.094;2023-01-23T14:20:32;13.10;;;6.53;;
19127;SDS011;9696;53.686;10.094;2023-01-23T14:23:12;10.77;;;6.17;;
19127;SDS011;9696;53.686;10.094;2023-01-23T14:25:48;17.53;;;6.17;;
19127;SDS011;9696;53.686;10.094;2023-01-23T14:28:18;13.63;;;6.07;;
19127;SDS011;9696;53.686;10.094;2023-01-23T14:30:54;16.00;;;6.93;;
19127;SDS011;9696;53.686;10.094;2023-01-23T14:33:25;13.20;;;6.87;;
19127;SDS011;9696;53.686;10.094;2023-01-23T14:35:55;14.23;;;6.87;;
19127;SDS011;9696;53.686;10.094;2023-01-23T14:38:30;10.70;;;5.67;;
19127;SDS011;9696;53.686;10.094;2023-01-23T14:41:05;12.70;;;6.87;;
19127;SDS011;9696;53.686;10.094;2023-01-23T14:43:35;16.07;;;7.20;;
19127;SDS011;9696;53.686;10.094;2023-01-23T14:46:05;12.80;;;5.77;;
19127;SDS011;9696;53.686;10.094;2023-01-23T14:48:41;16.37;;;6.77;;
19127;SDS011;9696;53.686;10.094;2023-01-23T14:51:16;12.23;;;6.23;;
19127;SDS011;9696;53.686;10.094;2023-01-23T14:53:55;13.37;;;6.03;;
19127;SDS011;9696;53.686;10.094;2023-01-23T14:56:27;14.87;;;6.43;;
19127;SDS011;9696;53.686;10.094;2023-01-23T14:59:00;10.97;;;6.07;;
19127;SDS011;9696;53.686;10.094;2023-01-23T15:01:31;13.63;;;6.63;;
19127;SDS011;9696;53.686;10.094;2023-01-23T15:04:03;12.03;;;6.37;;
19127;SDS011;9696;53.686;10.094;2023-01-23T15:06:33;12.37;;;6.57;;
19127;SDS011;9696;53.686;10.094;2023-01-23T15:09:04;14.53;;;6.97;;
19127;SDS011;9696;53.686;10.094;2023-01-23T15:11:40;13.63;;;6.90;;
19127;SDS011;9696;53.686;10.094;2023-01-23T15:17:02;13.43;;;7.10;;
19127;SDS011;9696;53.686;10.094;2023-01-23T15:19:34;13.57;;;7.00;;
19127;SDS011;9696;53.686;10.094;2023-01-23T15:22:05;15.10;;;7.20;;
19127;SDS011;9696;53.686;10.094;2023-01-23T15:24:35;17.33;;;7.20;;
19127;SDS011;9696;53.686;10.094;2023-01-23T15:27:20;12.17;;;6.80;;
19127;SDS011;9696;53.686;10.094;2023-01-23T15:29:51;13.97;;;7.23;;
19127;SDS011;9696;53.686;10.094;2023-01-23T15:33:02;11.50;;;5.87;;
19127;SDS011;9696;53.686;10.094;2023-01-23T15:35:47;15.77;;;7.70;;
19127;SDS011;9696;53.686;10.094;2023-01-23T15:38:16;16.27;;;7.63;;
19127;SDS011;9696;53.686;10.094;2023-01-23T15:40:45;15.37;;;7.43;;
19127;SDS011;9696;53.686;10.094;2023-01-23T15:43:16;15.37;;;7.83;;
19127;SDS011;9696;53.686;10.094;2023-01-23T15:45:46;16.60;;;8.27;;
19127;SDS011;9696;53.686;10.094;2023-01-23T15:48:15;14.80;;;7.43;;
19127;SDS011;9696;53.686;10.094;2023-01-23T15:50:44;13.63;;;7.63;;
19127;SDS011;9696;53.686;10.094;2023-01-23T15:53:13;18.20;;;7.83;;
19127;SDS011;9696;53.686;10.094;2023-01-23T15:55:43;15.43;;;7.30;;